Ana Sayfa
METAR-TAF:

METAR-TAF

Havaalanları :

Moroni, Komor Adaları

Enlem: 11-32S, Boylam: 043-16E, yükseklik: 29 m

Güncel hava durumu gözlemi

Rapor saat 04:00 UTC de 36 dakika önce yapıldı.
Rüzgar güney/güneydoğudan 5 kt
Sıcaklık 28°C
Nem 79%
Basınç 1013 hPa
Görüş mesafesi 10 km veya daha fazla
2000 ft yükseklikte az bulutlu, Yükselen kümülüs.

METAR: FMCH 190400Z 15005KT 9999 FEW020TCU 28/24 Q1013 NOSIG

Saat: 07:36 (04:36 UTC)

Tahmin

Rapor saat 17:00 UTC de 11 saat ve 36 dakika önce yapıldı.
Ayın 18'si saat 18 UTC'den ayın 19'si saat 24 UTC'ye kadar geçerli Tahmin
Rüzgar güneydoğudan 4 kt
Görüş mesafesi 10 km veya daha fazla
2000 ft yükseklikte az bulutlu
Dönüşüyor
ayın 19'si saat 05 UTC'den ayın 19'si saat 07 UTC'ye kadar
Rüzgar güney/güneybatıdan 10 kt
Dönüşüyor
ayın 19'si saat 16 UTC'den ayın 19'si saat 18 UTC'ye kadar
Rüzgar değişken yönden 2 kt

TAF: FMCH 181700Z 1818/1924 13004KT 9999 FEW020 BECMG 1905/1907 20010KT BECMG 1916/1918 VRB02KT

4.000'den fazla havaalanı için hava durumu gözlemleri ve tahminleri (METAR ve TAF raporları).

Kullanılabilir istasyonlar harita üzerinde sarı ve kırmızı noktalarla gösterilir.

İstasyonun adını görmek için fareyi noktanın üzerinde gezdirin.

Sonrasında hava gözlem ve tahminlerini görmek için tıklayın.

Haritayı değiştirmek için: yaklaştırmak için siyah artı işaretli yeşil düğmeye ve uzaklaştırmak için de eksi işaretli düğmeye hızla tıklayın; bitişik haritalar için yeşil okları kullanın.


METAR-TAF: